Time;durP1;ratioP1;P1;durP2;ratioP2;P2;SDS_P1;SDS_P2;PMS_P1;PMS_P2;Temp;Humidity;BMP_temperature;BMP_pressure;BME280_temperature;BME280_humidity;BME280_pressure;Samples;Min_cycle;Max_cycle;Signal;HPM_P1;HPM_P2
2022/05/05 00:03:39;;;;;;;28.02;16.25;;;;;;;6.72;95.35;98036.47;10295694;28;20072;-58
2022/05/05 00:08:38;;;;;;;33.53;18.42;;;;;;;6.63;95.09;98033.69;10295323;28;20078;-58
2022/05/05 00:18:54;;;;;;;32.10;17.25;;;;;;;6.66;95.33;98035.50;10294654;28;20476;-57
2022/05/05 00:23:53;;;;;;;41.40;17.23;;;;;;;6.65;94.81;98026.88;10293735;28;20461;-58
2022/05/05 00:28:52;;;;;;;50.65;17.23;;;;;;;6.64;95.34;98030.31;10294057;28;20046;-57
2022/05/05 00:33:51;;;;;;;77.30;18.00;;;;;;;6.59;95.33;98030.22;10294833;28;20061;-58
2022/05/05 00:38:50;;;;;;;84.40;19.42;;;;;;;6.60;96.38;98031.94;10293993;28;20513;-57
2022/05/05 00:43:49;;;;;;;105.53;21.45;;;;;;;6.70;95.68;98035.59;10293418;28;20535;-57
2022/05/05 00:48:50;;;;;;;60.00;18.63;;;;;;;6.81;95.83;98036.63;10293652;28;20064;-57
2022/05/05 00:53:50;;;;;;;142.65;24.17;;;;;;;6.92;96.12;98035.97;10294495;28;20485;-57
2022/05/05 00:58:49;;;;;;;;;;;;;;;7.01;96.10;98039.59;10293111;28;20480;-57
2022/05/05 01:03:49;;;;;;;85.32;21.33;;;;;;;7.14;96.04;98032.91;10292881;28;20329;-57
2022/05/05 01:08:48;;;;;;;61.35;20.80;;;;;;;7.25;96.40;98046.00;10293103;28;20484;-57
2022/05/05 01:13:47;;;;;;;132.57;24.25;;;;;;;7.33;96.08;98035.81;10292771;28;20446;-57
2022/05/05 01:18:46;;;;;;;61.35;20.50;;;;;;;7.43;96.20;98030.84;10292186;28;20516;-57
2022/05/05 01:23:45;;;;;;;70.28;22.27;;;;;;;7.52;96.66;98027.56;10291477;28;20483;-57
2022/05/05 01:28:46;;;;;;;87.50;21.60;;;;;;;7.59;96.79;98031.97;10292594;28;20480;-57
2022/05/05 01:33:45;;;;;;;204.35;29.48;;;;;;;7.58;96.79;98030.22;10291652;28;20077;-58
2022/05/05 01:38:44;;;;;;;91.72;23.17;;;;;;;7.46;96.64;98040.34;10290998;28;20069;-57
2022/05/05 01:43:44;;;;;;;112.95;24.00;;;;;;;7.19;97.13;98005.50;10291638;28;20061;-58
2022/05/05 01:48:44;;;;;;;125.20;25.02;;;;;;;7.22;96.45;98040.81;10292146;28;20184;-57
2022/05/05 01:53:43;;;;;;;77.25;23.20;;;;;;;7.25;97.15;98041.72;10290708;28;20057;-57
2022/05/05 01:58:42;;;;;;;54.55;19.10;;;;;;;7.23;96.98;98047.69;10290842;28;20073;-57
2022/05/05 02:03:41;;;;;;;53.60;18.13;;;;;;;7.03;96.75;98049.94;10290642;28;20069;-57
2022/05/05 02:08:40;;;;;;;42.85;16.90;;;;;;;6.92;97.14;98064.34;10291607;28;20104;-57
2022/05/05 02:13:39;;;;;;;42.25;15.23;;;;;;;6.67;97.24;98079.34;10290918;28;20038;-57
2022/05/05 02:18:38;;;;;;;34.05;13.48;;;;;;;6.25;96.77;98081.94;10291089;28;20120;-57
2022/05/05 02:23:37;;;;;;;51.08;14.48;;;;;;;6.09;97.07;98075.56;10291445;28;20065;-57
2022/05/05 02:28:36;;;;;;;41.67;14.60;;;;;;;6.06;97.73;98075.50;10290372;28;20058;-57
2022/05/05 02:33:35;;;;;;;63.28;16.05;;;;;;;6.03;98.16;98084.03;10289420;28;20076;-57
2022/05/05 02:38:43;;;;;;;53.65;15.38;;;;;;;6.07;98.11;98092.69;10290791;28;20029;-57
2022/05/05 02:43:42;;;;;;;75.72;19.65;;;;;;;6.15;97.94;98083.44;10290626;28;20058;-57
2022/05/05 02:48:41;;;;;;;44.85;15.20;;;;;;;6.16;97.94;98088.63;10293562;28;20081;-57
2022/05/05 02:58:57;;;;;;;38.63;14.65;;;;;;;6.30;98.04;98080.31;10297821;28;20066;-57
2022/05/05 03:03:56;;;;;;;55.80;18.00;;;;;;;6.44;98.22;98078.88;10297373;28;20029;-57
2022/05/05 03:08:55;;;;;;;67.38;18.05;;;;;;;6.51;97.62;98079.88;10297692;28;20117;-57
2022/05/05 03:13:54;;;;;;;45.28;16.90;;;;;;;6.53;97.68;98088.53;10296878;28;20117;-57
2022/05/05 03:18:53;;;;;;;70.18;21.25;;;;;;;6.50;98.27;98089.34;10297488;28;20269;-58
2022/05/05 03:23:52;;;;;;;88.38;20.10;;;;;;;6.46;99.07;98102.13;10297504;28;20137;-58
2022/05/05 03:28:51;;;;;;;70.72;19.67;;;;;;;6.38;99.52;98108.00;10296382;28;20053;-58
2022/05/05 03:33:50;;;;;;;41.20;16.25;;;;;;;6.55;98.97;98110.91;10296536;28;20044;-57
2022/05/05 03:38:54;;;;;;;61.90;18.02;;;;;;;6.77;98.24;98108.75;10297222;28;20069;-58
2022/05/05 03:43:53;;;;;;;83.38;19.27;;;;;;;6.80;99.12;98091.66;10313365;28;20053;-58
2022/05/05 03:48:52;;;;;;;75.05;19.45;;;;;;;7.04;98.83;98123.91;10309586;28;20073;-57
2022/05/05 03:53:54;;;;;;;53.38;16.80;;;;;;;7.02;98.35;98110.13;10295572;28;20069;-57
2022/05/05 03:58:53;;;;;;;44.92;16.33;;;;;;;7.13;98.21;98118.06;10295076;28;20062;-58
2022/05/05 04:03:52;;;;;;;40.33;15.25;;;;;;;7.07;97.88;98134.28;10294970;28;20026;-58
2022/05/05 04:08:51;;;;;;;60.65;17.85;;;;;;;6.89;99.15;98133.94;10294444;28;20048;-57
2022/05/05 04:13:50;;;;;;;61.03;17.55;;;;;;;6.87;98.99;98130.47;10295429;28;20082;-58
2022/05/05 04:18:49;;;;;;;62.03;18.70;;;;;;;6.78;98.42;98131.16;10294522;28;20088;-58
2022/05/05 04:23:48;;;;;;;51.20;18.20;;;;;;;6.98;99.27;98154.75;10294240;28;20440;-58
2022/05/05 04:28:48;;;;;;;75.78;20.33;;;;;;;7.08;98.49;98133.47;10295389;28;20053;-58
2022/05/05 04:33:47;;;;;;;49.45;17.95;;;;;;;7.27;98.51;98159.63;10316083;28;20080;-58
2022/05/05 04:38:46;;;;;;;54.35;18.95;;;;;;;7.47;98.40;98160.88;10335068;28;20036;-58
2022/05/05 04:43:45;;;;;;;60.03;19.50;;;;;;;7.55;98.80;98156.72;10314197;28;20507;-56
2022/05/05 04:48:44;;;;;;;45.47;16.73;;;;;;;7.60;98.26;98162.81;10296174;28;20038;-57
2022/05/05 04:53:43;;;;;;;51.40;17.25;;;;;;;7.69;97.52;98156.09;10293222;28;20030;-57
2022/05/05 04:58:42;;;;;;;46.63;17.63;;;;;;;7.54;97.47;98160.13;10287885;28;20576;-58
2022/05/05 05:03:41;;;;;;;43.33;16.35;;;;;;;7.65;97.89;98144.81;10292694;28;20436;-57
2022/05/05 05:08:42;;;;;;;42.60;16.58;;;;;;;7.68;96.81;98162.94;10293891;28;20034;-57
2022/05/05 05:13:41;;;;;;;41.17;13.95;;;;;;;7.55;96.77;98174.78;10317918;28;20524;-57
2022/05/05 05:18:40;;;;;;;40.53;15.30;;;;;;;7.34;96.53;98145.97;10292485;28;20058;-57
2022/05/05 05:23:39;;;;;;;45.80;14.75;;;;;;;7.58;96.72;98168.81;10292100;28;20065;-57
2022/05/05 05:28:39;;;;;;;87.90;18.52;;;;;;;7.66;96.60;98173.28;10292226;28;20132;-58
2022/05/05 05:33:38;;;;;;;49.65;15.82;;;;;;;7.77;96.70;98167.41;10291999;28;20077;-58
2022/05/05 05:38:37;;;;;;;46.25;14.85;;;;;;;7.85;96.12;98171.88;10291111;28;20038;-57
2022/05/05 05:43:37;;;;;;;46.50;18.17;;;;;;;8.00;96.96;98181.56;10288950;28;20439;-57
2022/05/05 05:48:38;;;;;;;27.27;15.38;;;;;;;8.47;96.67;98181.41;10288010;28;20057;-58
2022/05/05 05:53:37;;;;;;;24.65;15.27;;;;;;;8.83;96.47;98179.31;10285914;28;20088;-57
2022/05/05 05:58:37;;;;;;;33.33;14.75;;;;;;;9.13;95.01;98194.34;10288683;28;20116;-57
2022/05/05 06:03:54;;;;;;;25.75;14.68;;;;;;;9.13;94.35;98202.09;10288169;28;20148;-57
2022/05/05 06:08:53;;;;;;;27.10;15.18;;;;;;;9.34;94.67;98202.38;10284991;28;20062;-58
2022/05/05 06:13:52;;;;;;;28.00;16.10;;;;;;;9.54;92.75;98199.16;10290807;28;20113;-57
2022/05/05 06:18:51;;;;;;;25.02;15.13;;;;;;;9.63;92.81;98194.06;10291094;28;20034;-57
2022/05/05 06:23:50;;;;;;;29.00;18.58;;;;;;;9.96;91.10;98195.22;10293862;28;20366;-58
2022/05/05 06:28:50;;;;;;;28.55;17.10;;;;;;;9.96;91.66;98174.50;10297929;28;20108;-58
2022/05/05 06:33:49;;;;;;;29.00;18.80;;;;;;;10.35;90.93;98204.16;10298885;28;20099;-58
2022/05/05 06:38:51;;;;;;;30.30;20.40;;;;;;;10.80;91.31;98195.81;10298706;28;20096;-58
2022/05/05 06:43:50;;;;;;;26.25;18.27;;;;;;;10.88;86.85;98198.47;10298681;28;20064;-58
2022/05/05 06:48:49;;;;;;;25.20;17.83;;;;;;;10.91;86.98;98195.88;10273217;28;20130;-58
2022/05/05 06:53:48;;;;;;;27.10;19.58;;;;;;;10.92;85.62;98207.16;10283742;28;20117;-58
2022/05/05 06:58:47;;;;;;;28.20;19.35;;;;;;;10.90;86.96;98214.91;10260854;28;20022;-58
2022/05/05 07:03:46;;;;;;;28.42;19.55;;;;;;;11.07;86.62;98209.78;10282235;28;20108;-58
2022/05/05 07:14:02;;;;;;;27.40;19.55;;;;;;;11.19;85.15;98203.78;10298501;28;20457;-58
2022/05/05 07:19:03;;;;;;;28.65;20.15;;;;;;;11.17;85.30;98202.91;10289740;28;20409;-58
2022/05/05 07:24:03;;;;;;;30.98;21.25;;;;;;;11.24;86.21;98197.75;10289128;28;20066;-58
2022/05/05 07:29:02;;;;;;;27.60;18.60;;;;;;;11.28;85.53;98200.34;10296626;28;20388;-58
2022/05/05 07:34:01;;;;;;;24.50;16.70;;;;;;;11.38;84.83;98207.31;10295859;28;20030;-58
2022/05/05 07:39:00;;;;;;;21.10;15.45;;;;;;;11.31;84.59;98201.22;10295661;28;20753;-58
2022/05/05 07:44:00;;;;;;;28.67;19.05;;;;;;;11.57;85.06;98203.91;10295686;28;20686;-58
2022/05/05 07:49:01;;;;;;;24.13;15.77;;;;;;;11.79;83.76;98201.34;10296250;28;20062;-58
2022/05/05 07:59:19;;;;;;;22.45;16.73;;;;;;;12.24;82.54;98208.28;10295650;28;20057;-58
2022/05/05 08:04:18;;;;;;;20.27;13.75;;;;;;;12.49;80.78;98209.16;10295498;28;20072;-58
2022/05/05 08:09:18;;;;;;;17.38;13.27;;;;;;;12.84;80.81;98210.84;10294539;28;20066;-58
2022/05/05 08:14:16;;;;;;;;;;;;;;;13.10;76.62;98208.16;10294973;28;20062;-58
2022/05/05 08:19:15;;;;;;;12.23;9.32;;;;;;;13.32;76.82;98202.84;10295245;28;19996;-58
2022/05/05 08:29:32;;;;;;;10.70;7.18;;;;;;;13.98;73.39;98195.53;10256705;28;20085;-58
2022/05/05 08:34:31;;;;;;;6.90;5.70;;;;;;;14.29;72.58;98202.19;10277973;28;20034;-58
2022/05/05 08:39:30;;;;;;;6.22;4.90;;;;;;;14.49;71.01;98191.59;10289987;28;20636;-57
2022/05/05 08:44:29;;;;;;;5.72;3.47;;;;;;;14.81;65.16;98205.22;10275473;28;20030;-57
2022/05/05 08:49:29;;;;;;;5.68;3.10;;;;;;;15.13;65.66;98200.50;10283272;28;20058;-57
2022/05/05 08:54:31;;;;;;;6.10;4.10;;;;;;;15.51;67.45;98202.63;10291919;28;20072;-58
2022/05/05 08:59:31;;;;;;;6.50;3.95;;;;;;;15.78;65.66;98206.59;10292778;28;20064;-58
2022/05/05 09:04:30;;;;;;;6.85;4.28;;;;;;;15.98;65.05;98203.72;10292758;28;20053;-57
2022/05/05 09:09:28;;;;;;;;;;;;;;;16.16;61.70;98196.44;10293262;28;20041;-58
2022/05/05 09:14:35;;;;;;;6.40;2.90;;;;;;;16.34;55.46;98200.53;10293412;28;20004;-57
2022/05/05 09:19:36;;;;;;;4.20;2.97;;;;;;;16.64;54.96;98207.00;10283104;28;20525;-57
2022/05/05 09:24:35;;;;;;;3.60;2.53;;;;;;;16.96;54.36;98201.19;10283193;28;20064;-57
2022/05/05 09:29:34;;;;;;;4.55;3.05;;;;;;;17.16;54.59;98200.78;10272281;28;20078;-57
2022/05/05 09:34:33;;;;;;;;;;;;;;;17.34;56.13;98192.53;10262003;28;20054;-57
2022/05/05 09:39:35;;;;;;;7.07;3.63;;;;;;;17.59;55.64;98189.38;10285462;28;19920;-58
2022/05/05 09:44:45;;;;;;;4.03;2.67;;;;;;;17.67;50.62;98190.06;10292715;28;20160;-58
2022/05/05 09:49:57;;;;;;;3.97;2.67;;;;;;;17.90;51.60;98181.69;10293517;28;20069;-58
2022/05/05 10:05:27;;;;;;;3.72;2.72;;;;;;;18.15;46.54;98166.22;10292524;28;20073;-60
2022/05/05 10:10:27;;;;;;;3.70;2.60;;;;;;;18.32;46.28;98163.16;10313617;28;20511;-59
2022/05/05 10:15:27;;;;;;;3.40;3.10;;;;;;;18.55;47.58;98159.03;10307605;28;20090;-58
2022/05/05 10:20:26;;;;;;;4.03;2.75;;;;;;;18.49;45.82;98153.97;10270358;28;20464;-59
2022/05/05 10:25:26;;;;;;;6.18;3.05;;;;;;;18.52;45.75;98157.34;10282336;28;20783;-59
2022/05/05 10:30:36;;;;;;;4.70;3.10;;;;;;;18.54;47.06;98154.69;10279243;28;20458;-59
2022/05/05 10:35:45;;;;;;;3.08;2.67;;;;;;;18.71;47.17;98155.13;10254253;28;20077;-59
2022/05/05 10:40:44;;;;;;;;;;;;;;;19.16;47.00;98146.00;10289673;28;20061;-59
2022/05/05 10:45:43;;;;;;;4.97;3.10;;;;;;;19.62;46.65;98147.25;10288625;28;20024;-59
2022/05/05 10:51:02;;;;;;;5.18;3.08;;;;;;;19.89;46.72;98142.88;10289469;28;20061;-59
2022/05/05 10:56:03;;;;;;;2.67;2.47;;;;;;;20.06;43.62;98144.97;10290207;28;20061;-59
2022/05/05 11:01:09;;;;;;;3.65;2.50;;;;;;;20.02;42.62;98148.59;10249203;28;20064;-58
2022/05/05 11:06:17;;;;;;;2.55;2.35;;;;;;;20.06;43.13;98155.50;10261997;28;20057;-59
2022/05/05 11:21:52;;;;;;;4.15;2.38;;;;;;;19.97;38.52;98145.25;10298237;28;20469;-59
2022/05/05 11:26:50;;;;;;;6.22;2.80;;;;;;;20.22;39.61;98133.00;10278453;28;20532;-59
2022/05/05 11:32:09;;;;;;;3.10;2.30;;;;;;;20.50;39.00;98145.28;10276770;28;20489;-59
2022/05/05 11:37:08;;;;;;;3.13;2.72;;;;;;;20.55;39.40;98140.69;10277098;28;20579;-59
2022/05/05 11:42:09;;;;;;;3.20;2.67;;;;;;;20.65;37.38;98138.59;10276086;28;20492;-59
2022/05/05 11:47:13;;;;;;;3.83;2.40;;;;;;;20.66;36.35;98145.59;10276854;28;20496;-59
2022/05/05 11:52:20;;;;;;;3.58;2.50;;;;;;;20.50;36.17;98135.56;10276486;28;20333;-59
2022/05/05 11:57:39;;;;;;;4.93;3.10;;;;;;;20.65;35.29;98131.53;10275120;28;20065;-59
2022/05/05 12:02:37;;;;;;;3.97;2.33;;;;;;;20.64;36.45;98124.53;10293138;28;20061;-59
2022/05/05 12:07:37;;;;;;;3.13;2.50;;;;;;;20.53;34.21;98121.41;10294109;28;20138;-59
2022/05/05 12:12:39;;;;;;;2.60;2.40;;;;;;;20.70;34.18;98120.81;10334714;28;20075;-59
2022/05/05 12:17:43;;;;;;;2.75;2.38;;;;;;;20.83;33.58;98123.88;10329423;28;20797;-59
2022/05/05 12:22:44;;;;;;;3.63;2.40;;;;;;;21.00;32.00;98125.91;10291273;28;20053;-59
2022/05/05 12:28:04;;;;;;;4.47;2.38;;;;;;;21.13;31.92;98113.97;10292781;28;20053;-59
2022/05/05 12:33:05;;;;;;;4.10;2.75;;;;;;;21.17;32.92;98104.13;10290699;28;20102;-59
2022/05/05 12:38:07;;;;;;;4.20;2.40;;;;;;;21.40;34.45;98090.09;10277467;28;20490;-59
2022/05/05 12:43:17;;;;;;;4.38;2.65;;;;;;;21.31;33.59;98084.25;10273146;28;20168;-59
2022/05/05 12:48:20;;;;;;;2.80;2.58;;;;;;;21.61;33.65;98096.28;10257372;28;20061;-59
2022/05/05 13:04:05;;;;;;;3.95;2.60;;;;;;;21.35;33.17;98087.63;10268589;28;20858;-59
2022/05/05 13:09:08;;;;;;;4.35;2.90;;;;;;;21.31;33.49;98072.81;10278300;28;20080;-59
2022/05/05 13:14:07;;;;;;;4.85;3.15;;;;;;;21.18;33.35;98090.03;10265601;28;20054;-59
2022/05/05 13:19:07;;;;;;;3.35;2.55;;;;;;;21.30;32.67;98079.03;10252857;28;20077;-56
2022/05/05 13:24:08;;;;;;;3.63;2.60;;;;;;;21.21;32.71;98082.88;10251589;28;20078;-57
2022/05/05 13:29:07;;;;;;;4.53;2.58;;;;;;;21.29;31.25;98082.59;10251711;28;20096;-57
2022/05/05 13:34:06;;;;;;;3.45;2.53;;;;;;;21.50;31.71;98086.16;10250319;28;20097;-59
2022/05/05 13:39:05;;;;;;;3.92;2.50;;;;;;;21.59;32.39;98084.94;10258337;28;20092;-59
2022/05/05 13:44:04;;;;;;;3.20;2.70;;;;;;;;;;10271410;28;20104;-57
2022/05/05 13:49:07;;;;;;;4.35;2.75;;;;;;;21.66;32.85;98070.56;10264526;28;20465;-57
2022/05/05 13:54:06;;;;;;;2.65;2.45;;;;;;;21.76;31.01;98071.91;10251237;28;20849;-57
2022/05/05 13:59:05;;;;;;;3.75;2.45;;;;;;;21.39;31.60;98083.09;10252631;28;20553;-57
2022/05/05 14:04:04;;;;;;;5.65;3.35;;;;;;;21.42;33.07;98062.69;10250853;28;20371;-57
2022/05/05 14:14:20;;;;;;;2.90;2.55;;;;;;;21.31;31.34;98083.38;10332187;28;20064;-57
2022/05/05 14:19:20;;;;;;;2.67;2.30;;;;;;;21.39;32.41;98089.22;10319087;28;20105;-57
2022/05/05 14:24:19;;;;;;;3.17;2.50;;;;;;;21.37;32.55;98085.78;10250835;28;20488;-57
2022/05/05 14:29:18;;;;;;;6.95;3.00;;;;;;;21.40;33.40;98088.31;10281179;28;20081;-57
2022/05/05 14:34:17;;;;;;;5.05;3.08;;;;;;;21.48;33.43;98093.28;10282663;28;20057;-57
2022/05/05 14:39:15;;;;;;;4.07;2.72;;;;;;;21.78;33.85;98088.56;10250329;28;20037;-57
2022/05/05 14:44:15;;;;;;;5.22;2.97;;;;;;;21.57;33.39;98107.91;10266854;28;20502;-58
2022/05/05 14:49:14;;;;;;;5.68;3.15;;;;;;;21.44;34.12;98104.91;10286133;28;20065;-58
2022/05/05 14:54:13;;;;;;;3.38;3.08;;;;;;;21.31;34.45;98101.84;10276807;28;20116;-59
2022/05/05 14:59:12;;;;;;;4.35;2.70;;;;;;;21.04;34.23;98103.75;10288218;28;20038;-59
2022/05/05 15:04:11;;;;;;;3.50;2.80;;;;;;;20.93;34.91;98106.78;10296522;28;20117;-58
2022/05/05 15:09:12;;;;;;;3.95;3.13;;;;;;;20.99;35.01;98101.28;10308562;28;20060;-58
2022/05/05 15:14:11;;;;;;;3.20;2.85;;;;;;;20.92;35.27;98111.22;10337940;28;20464;-58
2022/05/05 15:19:10;;;;;;;6.15;3.50;;;;;;;20.64;36.40;98041.94;10337427;28;20469;-58
2022/05/05 15:24:10;;;;;;;3.85;3.13;;;;;;;20.99;36.60;98101.28;10322259;28;20061;-58
2022/05/05 15:29:12;;;;;;;3.28;2.97;;;;;;;20.74;36.77;98095.22;10293922;28;20081;-58
2022/05/05 15:34:12;;;;;;;4.32;3.33;;;;;;;20.21;38.63;98104.06;10295676;28;20068;-58
2022/05/05 15:39:11;;;;;;;4.78;3.25;;;;;;;20.14;37.93;98097.28;10295732;28;20077;-58
2022/05/05 15:44:10;;;;;;;6.82;4.40;;;;;;;19.87;38.42;98092.88;10295875;28;20080;-58
2022/05/05 15:49:09;;;;;;;8.38;4.90;;;;;;;19.88;39.80;98104.28;10295926;28;20033;-58
2022/05/05 15:54:08;;;;;;;6.85;4.65;;;;;;;19.87;40.05;98087.63;10292714;28;20084;-59
2022/05/05 15:59:07;;;;;;;4.78;3.83;;;;;;;19.93;39.94;98089.22;10291640;28;20045;-58
2022/05/05 16:04:06;;;;;;;5.22;3.58;;;;;;;19.98;40.34;98081.16;10293693;28;20030;-58
2022/05/05 16:09:05;;;;;;;6.93;3.60;;;;;;;19.96;40.05;98091.72;10304541;28;20115;-58
2022/05/05 16:14:04;;;;;;;7.80;4.38;;;;;;;19.95;38.86;98090.00;10335172;28;20040;-58
2022/05/05 16:19:04;;;;;;;10.63;5.45;;;;;;;19.93;38.34;98088.31;10335320;28;20412;-59
2022/05/05 16:24:03;;;;;;;6.28;4.00;;;;;;;19.83;38.17;98093.03;10335037;28;20144;-58
2022/05/05 16:34:19;;;;;;;8.65;5.55;;;;;;;19.56;38.56;98085.13;10291521;28;20145;-58
2022/05/05 16:39:18;;;;;;;5.43;4.63;;;;;;;19.26;38.86;98092.19;10293826;28;20062;-59
2022/05/05 16:44:18;;;;;;;7.47;4.88;;;;;;;19.06;39.55;98107.69;10293077;28;20038;-57
2022/05/05 16:49:19;;;;;;;11.90;5.10;;;;;;;18.86;40.60;98117.03;10293826;28;20073;-57
2022/05/05 16:54:19;;;;;;;5.25;4.10;;;;;;;18.72;41.00;98121.84;10293296;28;20544;-57
2022/05/05 16:59:18;;;;;;;6.80;4.90;;;;;;;18.61;41.74;98122.94;10292745;28;20060;-57
2022/05/05 17:04:17;;;;;;;6.68;5.10;;;;;;;18.38;41.68;98117.44;10294074;28;20066;-57
2022/05/05 17:09:16;;;;;;;9.77;5.40;;;;;;;18.14;42.41;98119.81;10292087;28;20504;-58
2022/05/05 17:14:15;;;;;;;11.63;7.30;;;;;;;18.06;42.58;98121.78;10291686;28;20073;-58
2022/05/05 17:19:14;;;;;;;9.60;6.50;;;;;;;17.89;43.37;98131.81;10292949;28;20045;-59
2022/05/05 17:24:13;;;;;;;;;;;;;;;17.56;43.56;98135.19;10293041;28;20057;-58
2022/05/05 17:29:12;;;;;;;14.83;8.53;;;;;;;17.26;45.99;98126.25;10292204;28;19952;-59
2022/05/05 17:34:11;;;;;;;;;;;;;;;17.22;47.74;98145.56;10292537;28;20037;-58
2022/05/05 17:39:11;;;;;;;13.13;8.47;;;;;;;16.94;48.28;98134.81;10291856;28;19915;-58
2022/05/05 17:50:29;;;;;;;13.50;7.95;;;;;;;16.80;49.86;98169.13;10291313;28;20057;-58
2022/05/05 17:54:46;;;;;;;12.48;6.32;;;;;;;16.21;51.35;98173.69;10290903;28;20085;-58
2022/05/05 17:59:45;;;;;;;;;;;;;;;15.99;52.17;98184.50;10291091;28;20116;-58
2022/05/05 18:04:44;;;;;;;9.88;6.28;;;;;;;15.77;53.40;98189.19;10293088;28;19910;-59
2022/05/05 18:09:43;;;;;;;9.32;7.00;;;;;;;15.58;54.36;98182.50;10306084;28;20502;-58
2022/05/05 18:14:42;;;;;;;;;;;;;;;15.40;54.31;98191.44;10331134;28;20073;-58
2022/05/05 18:19:42;;;;;;;12.88;7.10;;;;;;;15.22;55.29;98201.28;10334695;28;19952;-58
2022/05/05 18:24:42;;;;;;;12.40;7.38;;;;;;;15.02;56.15;98211.09;10339538;28;20072;-59
2022/05/05 18:29:41;;;;;;;14.38;7.60;;;;;;;14.78;57.36;98205.25;10339558;28;20076;-59
2022/05/05 18:34:40;;;;;;;10.48;6.70;;;;;;;14.64;58.15;98214.97;10319249;28;20139;-59
2022/05/05 18:39:41;;;;;;;;;;;;;;;14.47;59.26;98232.53;10298457;28;20515;-59
2022/05/05 18:44:40;;;;;;;10.55;7.18;;;;;;;14.24;59.40;98232.72;10298515;28;20396;-59
2022/05/05 18:49:39;;;;;;;;;;;;;;;14.05;59.68;98242.41;10298310;28;20077;-59
2022/05/05 18:54:38;;;;;;;12.02;7.20;;;;;;;13.90;59.38;98238.19;10297790;28;19913;-59
2022/05/05 18:59:38;;;;;;;9.20;5.78;;;;;;;13.74;60.05;98222.63;10297237;28;20036;-59
2022/05/05 19:04:39;;;;;;;8.43;5.97;;;;;;;13.68;59.94;98233.09;10298004;28;20073;-59
2022/05/05 19:09:42;;;;;;;11.90;7.70;;;;;;;13.54;60.78;98254.03;10312085;28;20519;-59
2022/05/05 19:14:41;;;;;;;14.18;8.43;;;;;;;13.35;61.23;98257.53;10337306;28;20061;-59
2022/05/05 19:19:40;;;;;;;11.48;7.30;;;;;;;13.27;61.37;98254.97;10337330;28;20033;-59
2022/05/05 19:24:40;;;;;;;10.25;7.13;;;;;;;12.98;62.37;98218.63;10337230;28;20025;-59
2022/05/05 19:29:40;;;;;;;12.60;7.65;;;;;;;13.05;63.13;98262.00;10336666;28;20562;-59
2022/05/05 19:34:39;;;;;;;12.43;8.48;;;;;;;12.92;63.54;98255.09;10336735;28;20076;-59
2022/05/05 19:39:39;;;;;;;12.52;7.32;;;;;;;12.80;64.16;98261.19;10336974;28;20072;-59
2022/05/05 19:44:38;;;;;;;14.57;8.13;;;;;;;12.46;64.24;98205.69;10308817;28;20069;-59
2022/05/05 19:49:37;;;;;;;11.43;7.60;;;;;;;12.63;64.30;98258.63;10297771;28;20936;-59
2022/05/05 19:54:36;;;;;;;11.90;8.80;;;;;;;12.42;67.10;98259.50;10294595;28;20464;-59
2022/05/05 20:10:10;;;;;;;15.15;11.57;;;;;;;12.22;67.81;98256.84;10314969;28;20087;-59
2022/05/05 20:15:09;;;;;;;16.02;12.10;;;;;;;12.19;67.90;98262.06;10302072;28;20061;-59
2022/05/05 20:20:08;;;;;;;18.17;13.80;;;;;;;12.15;68.53;98249.91;10294408;28;20612;-59
2022/05/05 20:25:07;;;;;;;;;;;;;;;12.05;68.82;98264.66;10295105;28;20068;-59
2022/05/05 20:30:13;;;;;;;15.07;11.05;;;;;;;11.99;69.06;98264.63;10294129;28;20423;-59
2022/05/05 20:35:12;;;;;;;19.65;11.98;;;;;;;11.79;69.40;98245.53;10294443;28;20062;-59
2022/05/05 20:40:11;;;;;;;16.83;12.18;;;;;;;11.83;70.21;98276.75;10293980;28;20095;-59
2022/05/05 20:45:10;;;;;;;21.30;14.23;;;;;;;11.74;71.79;98294.06;10292934;28;20065;-59
2022/05/05 20:50:10;;;;;;;13.52;10.25;;;;;;;11.53;74.86;98293.13;10293840;28;20041;-59
2022/05/05 20:55:09;;;;;;;15.65;10.15;;;;;;;11.44;74.90;98295.69;10293508;28;20077;-59
2022/05/05 21:00:11;;;;;;;15.65;10.30;;;;;;;11.45;74.09;98290.50;10293745;28;20121;-59
2022/05/05 21:05:11;;;;;;;15.93;10.40;;;;;;;11.45;74.38;98298.31;10292953;28;20057;-59
2022/05/05 21:10:10;;;;;;;14.18;10.50;;;;;;;11.41;74.56;98296.56;10292371;28;20065;-59
2022/05/05 21:15:10;;;;;;;19.63;12.45;;;;;;;11.37;74.60;98288.72;10293252;28;20077;-59
2022/05/05 21:25:34;;;;;;;18.25;13.68;;;;;;;11.22;74.71;98294.69;10292339;28;20509;-59
2022/05/05 21:30:38;;;;;;;19.02;14.38;;;;;;;11.16;74.92;98294.69;10292363;28;20108;-59
2022/05/05 21:35:37;;;;;;;25.27;15.20;;;;;;;11.10;75.57;98294.66;10292618;28;20081;-59
2022/05/05 21:40:49;;;;;;;19.40;14.30;;;;;;;11.06;76.40;98305.88;10291416;28;20061;-59
2022/05/05 21:45:49;;;;;;;21.95;15.73;;;;;;;11.00;76.05;98301.53;10292243;28;20069;-59
2022/05/05 21:50:52;;;;;;;30.67;19.63;;;;;;;10.96;76.14;98305.84;10291248;28;20061;-59
2022/05/05 21:55:51;;;;;;;26.25;17.55;;;;;;;10.94;76.12;98314.47;10290494;28;20065;-59
2022/05/05 22:00:52;;;;;;;22.40;16.17;;;;;;;10.83;77.42;98306.56;10291435;28;20065;-59
2022/05/05 22:05:51;;;;;;;24.25;17.15;;;;;;;10.79;77.06;98304.81;10290998;28;20065;-59
2022/05/05 22:10:51;;;;;;;25.23;18.05;;;;;;;10.72;76.67;98303.03;10314729;28;20077;-59
2022/05/05 22:15:51;;;;;;;22.23;15.63;;;;;;;10.39;78.25;98270.78;10328716;28;20061;-59
2022/05/05 22:20:50;;;;;;;;;;;;;;;10.51;79.96;98304.59;10330006;28;20489;-59
2022/05/05 22:25:49;;;;;;;21.27;14.93;;;;;;;10.49;79.90;98311.50;10329545;28;19975;-59
2022/05/05 22:30:48;;;;;;;;;;;;;;;10.42;79.55;98307.13;10331717;28;20087;-59
2022/05/05 22:35:47;;;;;;;17.85;13.07;;;;;;;10.28;80.73;98306.13;10331433;28;19913;-59
2022/05/05 22:46:04;;;;;;;23.00;15.70;;;;;;;10.14;81.69;98312.09;10331418;28;20069;-59
2022/05/05 22:51:05;;;;;;;25.90;16.67;;;;;;;10.09;81.44;98302.50;10331036;28;20075;-59
2022/05/05 22:56:04;;;;;;;20.80;15.30;;;;;;;9.97;81.77;98301.53;10330322;28;20568;-59
2022/05/05 23:01:03;;;;;;;30.02;19.20;;;;;;;9.83;82.12;98286.69;10329653;28;20539;-59
2022/05/05 23:06:02;;;;;;;27.25;18.65;;;;;;;9.80;82.81;98294.44;10333908;28;20065;-59
2022/05/05 23:11:01;;;;;;;24.08;16.60;;;;;;;9.68;82.95;98288.25;10337798;28;20092;-59
2022/05/05 23:16:01;;;;;;;22.55;15.70;;;;;;;9.57;83.12;98289.84;10337726;28;20064;-59
2022/05/05 23:21:00;;;;;;;24.20;16.33;;;;;;;9.59;83.36;98298.53;10338144;28;20067;-59
2022/05/05 23:26:00;;;;;;;23.50;16.02;;;;;;;9.55;83.24;98300.19;10337711;28;20030;-59
2022/05/05 23:30:59;;;;;;;27.95;18.10;;;;;;;9.52;83.47;98299.31;10337443;28;20088;-59
2022/05/05 23:41:15;;;;;;;26.17;18.48;;;;;;;9.41;83.93;98298.28;10337492;28;20068;-59
2022/05/05 23:46:14;;;;;;;25.85;17.23;;;;;;;9.23;84.58;98288.53;10336473;28;20021;-59
2022/05/05 23:56:31;;;;;;;22.70;16.15;;;;;;;9.17;84.87;98283.28;10336087;28;20057;-59
